createdAt,value
2022-09-26T00:02:17.991Z,69.26
2022-09-26T00:07:22.217Z,68.46
2022-09-26T00:12:25.673Z,68.75
2022-09-26T00:17:31.168Z,68.79
2022-09-26T00:22:34.478Z,68.59
2022-09-26T00:27:38.514Z,68.61
2022-09-26T00:32:43.255Z,69.12
2022-09-26T00:37:47.343Z,69.13
2022-09-26T00:42:50.677Z,68.88
2022-09-26T00:48:00.440Z,69.31
2022-09-26T00:53:10.934Z,69.05
2022-09-26T00:58:18.720Z,69.04
2022-09-26T01:03:25.420Z,68.29
2022-09-26T01:08:34.110Z,68.31
2022-09-26T01:13:39.255Z,68.26
2022-09-26T01:18:46.087Z,68.67
2022-09-26T01:24:08.698Z,67.98
2022-09-26T01:29:33.347Z,68.50
2022-09-26T01:34:46.464Z,68.33
2022-09-26T01:40:03.363Z,68.95
2022-09-26T01:45:14.835Z,68.77
2022-09-26T01:50:29.382Z,68.39
2022-09-26T01:55:39.157Z,68.29
2022-09-26T02:00:46.232Z,68.29
2022-09-26T02:05:57.400Z,68.20
2022-09-26T02:11:07.071Z,68.20
2022-09-26T02:16:16.240Z,67.87
2022-09-26T02:21:24.475Z,67.71
2022-09-26T02:26:30.824Z,67.54
2022-09-26T02:31:38.738Z,67.55
2022-09-26T02:36:44.960Z,67.76
2022-09-26T02:41:52.597Z,68.03
2022-09-26T02:47:21.973Z,68.20
2022-09-26T02:52:45.035Z,67.84
2022-09-26T02:58:06.653Z,68.44
2022-09-26T03:03:19.534Z,68.25
2022-09-26T03:08:28.010Z,68.08
2022-09-26T03:13:37.055Z,67.48
2022-09-26T03:18:47.264Z,68.17
2022-09-26T03:23:52.500Z,67.31
2022-09-26T03:28:57.683Z,67.26
2022-09-26T03:34:01.090Z,67.42
2022-09-26T03:39:06.881Z,67.19
2022-09-26T03:44:10.279Z,66.86
2022-09-26T03:49:14.471Z,67.08
2022-09-26T03:54:19.312Z,66.67
2022-09-26T03:59:23.388Z,66.97
2022-09-26T04:04:26.889Z,66.74
2022-09-26T04:09:32.689Z,66.88
2022-09-26T04:14:36.640Z,66.56
2022-09-26T04:19:41.243Z,66.35
2022-09-26T04:24:45.989Z,66.17
2022-09-26T04:29:50.106Z,66.46
2022-09-26T04:34:53.430Z,66.07
2022-09-26T04:39:58.839Z,65.90
2022-09-26T04:45:02.135Z,65.85
2022-09-26T04:50:08.359Z,66.30
2022-09-26T04:55:13.105Z,65.73
2022-09-26T05:00:25.681Z,65.77
2022-09-26T05:05:33.976Z,65.87
2022-09-26T05:10:39.404Z,65.45
2022-09-26T05:15:43.722Z,65.78
2022-09-26T05:20:49.105Z,65.38
2022-09-26T05:26:11.853Z,65.20
2022-09-26T05:31:16.468Z,65.24
2022-09-26T05:36:21.112Z,64.94
2022-09-26T05:41:29.857Z,64.57
2022-09-26T05:46:35.614Z,64.62
2022-09-26T05:51:42.182Z,64.11
2022-09-26T05:56:47.626Z,63.54
2022-09-26T06:01:51.756Z,63.20
2022-09-26T06:06:55.810Z,63.12
2022-09-26T06:12:01.404Z,62.86
2022-09-26T06:17:05.429Z,62.69
2022-09-26T06:22:09.436Z,62.84
2022-09-26T06:27:14.886Z,62.20
2022-09-26T06:32:18.267Z,61.62
2022-09-26T06:37:22.619Z,61.40
2022-09-26T06:42:27.655Z,60.98
2022-09-26T06:47:31.715Z,60.82
2022-09-26T06:52:35.917Z,60.34
2022-09-26T06:57:42.488Z,59.45
2022-09-26T07:02:53.243Z,59.38
2022-09-26T07:07:58.648Z,58.98
2022-09-26T07:13:05.392Z,58.65
2022-09-26T07:18:09.485Z,58.80
2022-09-26T07:23:13.212Z,58.00
2022-09-26T07:28:18.839Z,56.88
2022-09-26T07:33:22.229Z,56.86
2022-09-26T07:38:26.690Z,56.47
2022-09-26T07:44:18.931Z,56.03
2022-09-26T07:49:13.249Z,56.27
2022-09-26T07:54:18.112Z,55.20
2022-09-26T07:59:24.128Z,55.10
2022-09-26T08:04:27.550Z,54.55
2022-09-26T08:09:31.531Z,54.36
2022-09-26T08:14:36.611Z,54.29
2022-09-26T08:19:40.684Z,53.78
2022-09-26T08:24:51.000Z,53.05
2022-09-26T08:29:57.571Z,52.64
2022-09-26T08:35:01.167Z,52.80
2022-09-26T08:40:05.774Z,53.09
2022-09-26T08:45:49.209Z,52.69
2022-09-26T08:51:00.155Z,52.06
2022-09-26T08:56:07.719Z,51.68
2022-09-26T09:01:25.620Z,49.91
2022-09-26T09:06:30.642Z,50.51
2022-09-26T09:11:56.954Z,48.89
2022-09-26T09:17:14.662Z,47.66
2022-09-26T09:22:33.444Z,47.97
2022-09-26T09:27:54.445Z,48.08
2022-09-26T09:33:04.973Z,48.28
2022-09-26T09:38:12.286Z,48.63
2022-09-26T09:43:26.165Z,47.51
2022-09-26T09:48:31.761Z,46.98
2022-09-26T09:53:50.982Z,47.25
2022-09-26T09:59:07.154Z,48.23
2022-09-26T10:04:31.446Z,49.58
2022-09-26T10:09:41.080Z,48.96
2022-09-26T10:14:50.635Z,47.68
2022-09-26T10:19:56.314Z,47.13
2022-09-26T10:25:06.260Z,47.89
2022-09-26T10:30:26.946Z,48.29
2022-09-26T10:35:43.306Z,48.39
2022-09-26T10:40:55.613Z,48.89
2022-09-26T10:46:10.985Z,48.57
2022-09-26T10:51:29.926Z,48.60
2022-09-26T10:56:40.696Z,48.05
2022-09-26T11:01:47.653Z,48.48
2022-09-26T11:06:53.500Z,49.63
2022-09-26T11:11:57.639Z,50.00
2022-09-26T11:17:03.413Z,50.14
2022-09-26T11:22:15.966Z,50.31
2022-09-26T11:27:33.579Z,50.96
2022-09-26T11:32:41.223Z,51.72
2022-09-26T11:38:12.197Z,52.34
2022-09-26T11:43:30.552Z,52.10
2022-09-26T11:48:51.304Z,52.47
2022-09-26T11:54:20.358Z,53.71
2022-09-26T11:59:41.633Z,53.94
2022-09-26T12:05:02.173Z,54.39
2022-09-26T12:10:27.720Z,54.04
2022-09-26T12:15:39.604Z,54.93
2022-09-26T12:21:04.938Z,55.81
2022-09-26T12:26:19.258Z,56.03
2022-09-26T12:31:36.988Z,56.06
2022-09-26T12:36:56.462Z,56.20
2022-09-26T12:42:15.741Z,55.59
2022-09-26T12:47:35.965Z,56.03
2022-09-26T12:53:10.299Z,56.27
2022-09-26T12:58:31.877Z,55.30
2022-09-26T13:04:02.669Z,55.17
2022-09-26T13:09:20.994Z,55.14
2022-09-26T13:14:42.527Z,55.17
2022-09-26T13:19:54.382Z,56.00
2022-09-26T13:25:04.154Z,56.78
2022-09-26T13:30:17.910Z,56.71
2022-09-26T13:35:24.841Z,57.21
2022-09-26T13:40:38.954Z,57.46
2022-09-26T13:46:01.619Z,57.63
2022-09-26T13:51:20.134Z,58.21
2022-09-26T13:56:48.727Z,58.72
2022-09-26T14:02:22.018Z,58.86
2022-09-26T14:08:05.831Z,59.48
2022-09-26T14:13:21.971Z,59.84
2022-09-26T14:18:51.263Z,59.14
2022-09-26T14:24:27.401Z,59.33
2022-09-26T14:29:38.514Z,59.36
2022-09-26T14:34:47.018Z,59.46
2022-09-26T14:39:53.759Z,59.75
2022-09-26T14:44:59.948Z,59.44
2022-09-26T14:50:08.881Z,59.57
2022-09-26T14:55:18.366Z,59.48
2022-09-26T15:00:41.214Z,59.97
2022-09-26T15:05:49.368Z,60.13
2022-09-26T15:10:55.465Z,60.54
2022-09-26T15:16:16.176Z,61.34
2022-09-26T15:21:28.978Z,62.15
2022-09-26T15:26:36.934Z,62.75
2022-09-26T15:31:44.458Z,63.21
2022-09-26T15:36:57.651Z,63.95
2022-09-26T15:42:20.237Z,64.71
2022-09-26T15:47:41.195Z,64.90
2022-09-26T15:52:50.799Z,65.57
2022-09-26T15:57:57.364Z,65.49
2022-09-26T16:03:21.247Z,65.69
2022-09-26T16:08:30.424Z,65.46
2022-09-26T16:13:39.139Z,65.52
2022-09-26T16:18:48.247Z,65.38
2022-09-26T16:23:54.897Z,65.44
2022-09-26T16:29:00.265Z,65.63
2022-09-26T16:34:06.777Z,65.77
2022-09-26T16:39:22.171Z,66.59
2022-09-26T16:44:34.348Z,65.64
2022-09-26T16:49:46.841Z,65.88
2022-09-26T16:54:53.618Z,65.77
2022-09-26T17:00:16.323Z,65.64
2022-09-26T17:05:23.095Z,65.67
2022-09-26T17:10:29.352Z,65.72
2022-09-26T17:15:36.335Z,65.73
2022-09-26T17:20:42.900Z,66.12
2022-09-26T17:25:55.359Z,67.03
2022-09-26T17:31:07.705Z,66.61
2022-09-26T17:36:20.056Z,67.20
2022-09-26T17:41:26.143Z,67.08
2022-09-26T17:46:31.434Z,67.11
2022-09-26T17:51:37.051Z,66.97
2022-09-26T17:56:43.727Z,67.19
2022-09-26T18:01:51.006Z,67.51
2022-09-26T18:06:56.882Z,67.30
2022-09-26T18:12:04.451Z,67.88
2022-09-26T18:17:08.696Z,67.55
2022-09-26T18:22:17.163Z,68.24
2022-09-26T18:27:23.875Z,68.61
2022-09-26T18:32:31.847Z,68.03
2022-09-26T18:37:36.217Z,68.06
2022-09-26T18:42:41.906Z,68.47
2022-09-26T18:47:46.190Z,67.92
2022-09-26T18:52:50.161Z,68.84
2022-09-26T18:58:21.854Z,68.57
2022-09-26T19:03:29.193Z,68.41
2022-09-26T19:08:36.902Z,68.71
2022-09-26T19:13:42.514Z,68.55
2022-09-26T19:18:47.358Z,68.86
2022-09-26T19:23:51.109Z,67.98
2022-09-26T19:28:58.481Z,68.97
2022-09-26T19:34:03.536Z,69.28
2022-09-26T19:39:12.168Z,69.28
2022-09-26T19:44:17.270Z,68.74
2022-09-26T19:49:21.722Z,69.33
2022-09-26T19:54:25.193Z,68.72
2022-09-26T19:59:30.750Z,69.46
2022-09-26T20:04:34.972Z,68.89
2022-09-26T20:09:39.948Z,69.01
2022-09-26T20:14:44.817Z,68.54
2022-09-26T20:19:49.428Z,68.83
2022-09-26T20:24:55.011Z,69.02
2022-09-26T20:30:17.800Z,68.68
2022-09-26T20:35:22.006Z,68.36
2022-09-26T20:40:26.303Z,68.28
2022-09-26T20:45:35.484Z,68.58
2022-09-26T20:50:40.693Z,69.38
2022-09-26T20:55:44.846Z,68.96
2022-09-26T21:00:51.312Z,69.45
2022-09-26T21:05:55.646Z,69.36
